Snow/Ice From: 24-10-2018 05:00 Until: 09:00 warning for: Snow/Ice Level: Yellow info button
suomi:
Liikennesää: Ajokeli muuttuu huonoksi aamulla tienpintojen jäätymisen vuoksi.

svenska:
Trafikvädret: Väglaget blir dåligt på morgonen p.g.a. tillfrysning av vägytor.

english:
Traffic weather warning: Bad road conditions are expected in the morning because of ice-covered roads. 


Thunder radar more information blitzortung!


Löydät sääaseman tiedot myös:

European Weather Network

Finland Weather Exchange

Weather Underground

AWEKAS



Weather Underground säähistoriasivu

Päivittäin yhteenveto Helmikuu 21, 2017 Yksiköt:  Metriset    Englantilaiset   Molemmat
« Edellinen Päivä
Seuraava Päivä »
Päivittäin Viikoittain Kuukausittain Vuosittain Mukautettu
  Korkea: Matala: Keskiarvo:
Lämpötila: -17.8 °C -10.3 °C -5.8 °C
Kastepiste: -17.8 °C -11.5 °C -7.4 °C
Kosteus: Humidity % 74 % 88 %
Tuulen nopeus: 0 km/h 0 km/h 0.3 km/h
Tuulenpuuska: 0 km/h - -
Tuuli:- - SW
Ilmanpaine: 0 hPa 986.3 hPa -
Sade: 0 mm    
Historical Graphs
 
 
Taulukkotiedot Helmikuu 21, 2017
Aika Lämpötila Kastepiste Ilmanpaine Tuuli Tuulen nopeus Tuulenpuuska Kosteus Sademäärä (tunneittain)
-17.8 °C -17.8 °C 0 hPa Calm     Humidity % 0 mm
00:00 -3.7 °C -4.6 °C 986.3 hPa Calm     93 % 0 mm
00:15 -3.8 °C -4.8 °C 986.3 hPa Calm     93 % 0 mm
00:30 -4.1 °C -5.1 °C 986.3 hPa Calm     93 % 0 mm
00:45 -4.3 °C -5.2 °C 986.3 hPa Calm     94 % 0 mm
01:00 -4.5 °C -5.3 °C 986.7 hPa Calm     94 % 0 mm
01:15 -4.7 °C -5.5 °C 986.7 hPa Calm     94 % 0 mm
01:30 -4.8 °C -5.7 °C 986.7 hPa Calm   4.8 km/h 94 % 0 mm
01:45 -4.9 °C -5.8 °C 986.3 hPa Calm   4.8 km/h 94 % 0 mm
02:00 -5.1 °C -5.7 °C 986.7 hPa Calm     95 % 0 mm
02:15 -5.1 °C -5.8 °C 986.7 hPa Calm     95 % 0 mm
02:30 -5.1 °C -5.8 °C 986.7 hPa Calm     95 % 0 mm
02:45 -5.1 °C -5.8 °C 986.7 hPa Calm     95 % 0 mm
03:00 -5.2 °C -5.9 °C 986.7 hPa Calm     95 % 0 mm
03:15 -5.3 °C -6 °C 986.7 hPa Calm     95 % 0 mm
03:30 -5.4 °C -6.1 °C 986.7 hPa Calm     95 % 0 mm
03:45 -5.6 °C -6.3 °C 987 hPa Calm     95 % 0 mm
04:00 -5.9 °C -6.8 °C 987 hPa Calm     94 % 0 mm
04:15 -6.3 °C -7.1 °C 987 hPa Calm     94 % 0 mm
04:30 -6.5 °C -7.3 °C 987 hPa Calm     94 % 0 mm
04:45 -6.8 °C -7.7 °C 987 hPa Calm     93 % 0 mm
05:00 -7.1 °C -8 °C 987.4 hPa Calm     93 % 0 mm
05:15 -7.3 °C -8.2 °C 987.4 hPa Calm     93 % 0 mm
05:30 -7.4 °C -8.3 °C 987.4 hPa Calm     93 % 0 mm
05:45 -7.6 °C -8.5 °C 987.4 hPa Calm     93 % 0 mm
06:00 -7.7 °C -8.7 °C 987.4 hPa Calm     93 % 0 mm
06:15 -7.8 °C -8.8 °C 987.4 hPa Calm     93 % 0 mm
06:30 -7.9 °C -8.9 °C 987.7 hPa Calm     93 % 0 mm
06:45 -8.2 °C -9.1 °C 987.7 hPa Calm     93 % 0 mm
07:00 -8.2 °C -9.2 °C 987.7 hPa Calm     93 % 0 mm
07:15 -8 °C -8.8 °C 987.7 hPa Calm     94 % 0 mm
07:30 -8 °C -8.9 °C 988 hPa Calm     93 % 0 mm
07:45 -8 °C -8.9 °C 988 hPa Calm     93 % 0 mm
08:00 -8.2 °C -9.1 °C 988.4 hPa Calm     93 % 0 mm
08:15 -8.2 °C -9.1 °C 988.7 hPa Calm     93 % 0 mm
08:30 -8.1 °C -8.9 °C 989.1 hPa Calm     94 % 0 mm
08:45 -7.6 °C -8.2 °C 989.1 hPa Calm     95 % 0 mm
09:00 -7 °C -7.7 °C 989.4 hPa Calm     95 % 0 mm
09:15 -6.6 °C -7.3 °C 989.4 hPa Calm     95 % 0 mm
09:30 -6.3 °C -6.9 °C 989.7 hPa Calm     95 % 0 mm
09:45 -6 °C -6.7 °C 989.7 hPa Calm   1.6 km/h 95 % 0 mm
10:00 -5.7 °C -6.3 °C 990.1 hPa Calm   1.6 km/h 95 % 0 mm
10:15 -5.4 °C -6.1 °C 990.1 hPa Calm   1.6 km/h 95 % 0 mm
10:30 -5.3 °C -6.1 °C 990.4 hPa Calm   1.6 km/h 94 % 0 mm
10:45 -5.1 °C -6.1 °C 990.7 hPa Calm   4.8 km/h 93 % 0 mm
11:00 -4.9 °C -5.9 °C 990.7 hPa Calm   3.2 km/h 93 % 0 mm
11:15 -4.7 °C -5.8 °C 991.1 hPa Calm   4.8 km/h 92 % 0 mm
11:30 -4.3 °C -5.5 °C 991.4 hPa Calm   3.2 km/h 91 % 0 mm
11:45 -4 °C -5.5 °C 991.4 hPa NNW 1.6 km/h 6.4 km/h 89 % 0 mm
12:00 -3.9 °C -5.6 °C 991.4 hPa NNW 1.6 km/h 8 km/h 88 % 0 mm
12:15 -3.5 °C -5.5 °C 991.8 hPa NNW 1.6 km/h 11.3 km/h 86 % 0 mm
12:30 -3.3 °C -5.4 °C 991.8 hPa NW 1.6 km/h 9.7 km/h 85 % 0 mm
12:45 -3.2 °C -5.5 °C 991.8 hPa Calm   3.2 km/h 84 % 0 mm
13:00 -3 °C -5.6 °C 992.1 hPa North 1.6 km/h 4.8 km/h 82 % 0 mm
13:15 -2.8 °C -5.6 °C 992.4 hPa North 1.6 km/h 6.4 km/h 81 % 0 mm
13:30 -2.6 °C -5.9 °C 992.4 hPa NE 1.6 km/h 6.4 km/h 78 % 0 mm
13:45 -2.4 °C -5.9 °C 992.8 hPa Calm   4.8 km/h 77 % 0 mm
14:00 -2.3 °C -6 °C 992.8 hPa NW 3.2 km/h 16.1 km/h 76 % 0 mm
14:15 -2.4 °C -6.1 °C 992.8 hPa North 1.6 km/h 8 km/h 76 % 0 mm
14:30 -2.4 °C -6.2 °C 993.1 hPa NNW 1.6 km/h 8 km/h 75 % 0 mm
14:45 -2.4 °C -6.3 °C 993.1 hPa NNW 1.6 km/h 9.7 km/h 75 % 0 mm
15:00 -2.4 °C -6.4 °C 993.5 hPa North 1.6 km/h 8 km/h 74 % 0 mm
15:15 -2.4 °C -6.4 °C 993.5 hPa NW 1.6 km/h 6.4 km/h 74 % 0 mm
15:30 -2.5 °C -6.3 °C 993.8 hPa NW 3.2 km/h 12.9 km/h 75 % 0 mm
15:45 -2.7 °C -6 °C 993.8 hPa Calm   4.8 km/h 78 % 0 mm
16:00 -2.3 °C -5.6 °C 993.8 hPa Calm   4.8 km/h 78 % 0 mm
16:15 -2.8 °C -6.3 °C 994.1 hPa NNW 1.6 km/h 4.8 km/h 77 % 0 mm
16:30 -3.2 °C -6.5 °C 994.1 hPa Calm   3.2 km/h 78 % 0 mm
16:45 -3.5 °C -6.5 °C 994.5 hPa Calm   3.2 km/h 80 % 0 mm
17:00 -3.7 °C -6.5 °C 994.5 hPa Calm     81 % 0 mm
17:15 -3.9 °C -6.6 °C 994.8 hPa Calm     82 % 0 mm
17:30 -4.1 °C -6.6 °C 995.1 hPa Calm   1.6 km/h 83 % 0 mm
17:45 -4.2 °C -6.7 °C 995.1 hPa Calm     83 % 0 mm
18:00 -4.3 °C -6.7 °C 995.1 hPa Calm     83 % 0 mm
18:15 -4.4 °C -6.7 °C 995.1 hPa Calm   1.6 km/h 84 % 0 mm
18:30 -4.7 °C -7 °C 995.5 hPa Calm     84 % 0 mm
18:45 -4.9 °C -7.1 °C 995.5 hPa Calm     85 % 0 mm
19:00 -5.3 °C -7.5 °C 995.5 hPa Calm     85 % 0 mm
19:15 -5.9 °C -7.9 °C 995.8 hPa Calm     86 % 0 mm
19:30 -6.3 °C -8 °C 995.8 hPa Calm     88 % 0 mm
19:45 -6.9 °C -8.4 °C 995.8 hPa Calm     89 % 0 mm
20:00 -7.1 °C -8.4 °C 996.2 hPa Calm     90 % 0 mm
20:15 -7.2 °C -8.5 °C 995.8 hPa Calm     90 % 0 mm
20:30 -7.4 °C -8.7 °C 996.2 hPa Calm   1.6 km/h 90 % 0 mm
20:45 -7.7 °C -8.9 °C 996.2 hPa Calm     91 % 0 mm
21:00 -7.9 °C -9.1 °C 996.5 hPa Calm     91 % 0 mm
21:15 -8.1 °C -9.3 °C 996.5 hPa Calm     91 % 0 mm
21:30 -8.3 °C -9.5 °C 996.2 hPa Calm     91 % 0 mm
21:45 -8.7 °C -9.9 °C 996.2 hPa Calm     91 % 0 mm
22:00 -8.9 °C -10.1 °C 996.2 hPa Calm     91 % 0 mm
22:15 -9.2 °C -10.4 °C 996.2 hPa Calm     91 % 0 mm
22:30 -9.4 °C -10.6 °C 996.5 hPa Calm     91 % 0 mm
22:45 -9.6 °C -10.6 °C 996.5 hPa Calm     92 % 0 mm
23:00 -9.7 °C -10.7 °C 996.5 hPa Calm     92 % 0 mm
23:15 -9.8 °C -10.9 °C 996.2 hPa Calm     92 % 0 mm
23:30 -10.1 °C -11.2 °C 996.2 hPa Calm     91 % 0 mm
23:45 -10.3 °C -11.5 °C 996.5 hPa Calm     91 % 0 mm
Esan sääasema
Terveisin Weather Underground - 2.75 mb

Alkuperäinen skripti  Jim McMurry - jmcmurry@mwt.net Sovitettu myös templatelle  Wim van der Kuil - Leuven-Template.eu

Laitteet joita käytämme:

Sääasema
Davis VP2

Sääasemaohjelma
Cumulus

Sääaseman tietokone
Asus EeePC

Palveluntarjoaja
Suncomet

Davis VP2

Cumulus

Asus EeePC

Suncomet